Snyder, Oklahoma
Current Conditions -  °F | °C
As of 8:33 AM on Sunday 23 Nov 2014 (Local Time) from KLTS Reporting Station
Clear Clear  
Wind Chill: 48°   Ceiling: Unl
Heat Index: 48°   Visibility: 8mi
Dew Point: 48°   Wind: 3mph
Humidity: 100%   Direction: 180°S
Pressure: 29.45"   Gusts: NA
Location:  34.66°N, 98.95°W
Report Text: KLTS 231433Z AUTO 18003KT 8SM CLR 09/09 A2945 RMK AO2 $
Loading
Personal Weather Stations






























Interactive Weather Map New forecast layout! Learn more

10-Day Weather Forecast

Advertisements
Track Severe Weather on mobile